Time;durP1;ratioP1;P1;durP2;ratioP2;P2;SDS_P1;SDS_P2;PMS_P1;PMS_P2;Temp;Humidity;BMP_temperature;BMP_pressure;BME280_temperature;BME280_humidity;BME280_pressure;Samples;Min_cycle;Max_cycle;Signal;HPM_P1;HPM_P2
2023/09/28 00:01:47;;;;;;;3.13;1.30;;;21.60;90.20;;;;;;5052131;28;20396;-83
2023/09/28 00:04:13;;;;;;;2.67;1.30;;;21.60;89.80;;;;;;5055372;28;20042;-83
2023/09/28 00:06:39;;;;;;;2.37;1.40;;;21.70;89.90;;;;;;5073529;28;20050;-82
2023/09/28 00:09:05;;;;;;;3.22;1.52;;;21.80;89.90;;;;;;5001345;28;20106;-82
2023/09/28 00:11:31;;;;;;;2.30;1.30;;;21.80;89.90;;;;;;5071380;28;20034;-83
2023/09/28 00:13:57;;;;;;;1.80;1.20;;;21.90;89.90;;;;;;5067315;28;20418;-82
2023/09/28 00:16:23;;;;;;;2.72;1.42;;;22.00;89.80;;;;;;5062839;28;20038;-82
2023/09/28 00:18:48;;;;;;;2.77;1.40;;;22.00;89.70;;;;;;5071028;28;20443;-82
2023/09/28 00:21:14;;;;;;;2.53;1.27;;;22.00;89.50;;;;;;5053448;28;20371;-80
2023/09/28 00:23:40;;;;;;;2.40;1.30;;;22.00;89.40;;;;;;5069161;28;20041;-81
2023/09/28 00:26:07;;;;;;;2.30;1.23;;;22.10;89.30;;;;;;5061826;28;20038;-79
2023/09/28 00:28:33;;;;;;;1.83;1.27;;;22.10;89.30;;;;;;5068203;28;20045;-80
2023/09/28 00:31:01;;;;;;;2.58;1.30;;;22.10;89.30;;;;;;5003461;28;20033;-80
2023/09/28 00:33:30;;;;;;;2.83;1.17;;;22.10;89.30;;;;;;4999244;28;20033;-80
2023/09/28 00:35:56;;;;;;;1.67;1.20;;;22.10;89.20;;;;;;5064723;28;20033;-82
2023/09/28 00:38:22;;;;;;;3.08;1.38;;;22.10;89.10;;;;;;5054416;28;20108;-80
2023/09/28 00:40:47;;;;;;;2.30;1.40;;;22.10;89.10;;;;;;5070975;28;20047;-80
2023/09/28 00:43:13;;;;;;;2.25;1.33;;;22.10;89.10;;;;;;4997704;28;20103;-81
2023/09/28 00:45:39;;;;;;;2.60;1.33;;;22.10;89.10;;;;;;5003675;28;20026;-82
2023/09/28 00:48:09;;;;;;;1.90;1.40;;;22.10;89.00;;;;;;5068460;28;20026;-80
2023/09/28 00:50:34;;;;;;;1.88;1.30;;;22.00;89.00;;;;;;5063717;28;20038;-81
2023/09/28 00:53:07;;;;;;;1.87;1.13;;;22.00;89.00;;;;;;5003550;28;20946;-80
2023/09/28 00:55:33;;;;;;;1.85;1.20;;;22.00;89.00;;;;;;5033503;28;20071;-81
2023/09/28 00:58:07;;;;;;;2.05;1.27;;;21.90;88.90;;;;;;5042463;28;20037;-83
2023/09/28 01:00:34;;;;;;;1.80;1.15;;;21.90;88.90;;;;;;5048632;28;20030;-81
2023/09/28 01:03:02;;;;;;;2.33;1.30;;;21.90;89.00;;;;;;5060551;28;20046;-82
2023/09/28 01:05:31;;;;;;;5.18;1.30;;;21.80;89.00;;;;;;4994739;28;20026;-80
2023/09/28 01:08:14;;;;;;;2.45;1.23;;;21.80;89.10;;;;;;5004487;28;20022;-80
2023/09/28 01:10:41;;;;;;;1.65;1.13;;;21.80;89.10;;;;;;5072303;28;20046;-80
2023/09/28 01:13:12;;;;;;;3.15;1.40;;;21.70;89.00;;;;;;5003787;28;20018;-80
2023/09/28 01:15:42;;;;;;;2.17;1.30;;;21.70;89.10;;;;;;5002839;28;20477;-80
2023/09/28 01:18:16;;;;;;;2.10;1.10;;;21.60;89.20;;;;;;5086538;28;20026;-80
2023/09/28 01:20:46;;;;;;;2.20;1.38;;;21.60;89.20;;;;;;5042412;28;20018;-80
2023/09/28 01:23:13;;;;;;;2.35;1.30;;;21.60;89.30;;;;;;5002275;28;20017;-80
2023/09/28 01:25:39;;;;;;;3.53;1.30;;;21.50;89.30;;;;;;5054170;28;20026;-80
2023/09/28 01:28:06;;;;;;;2.03;1.33;;;21.50;89.40;;;;;;5069220;28;20095;-80
2023/09/28 01:30:33;;;;;;;2.78;1.45;;;21.50;89.50;;;;;;5002880;28;20121;-82
2023/09/28 01:32:59;;;;;;;2.55;1.38;;;21.40;89.70;;;;;;5069130;28;20022;-82
2023/09/28 01:35:26;;;;;;;2.63;1.40;;;21.40;89.70;;;;;;5063499;28;20042;-82
2023/09/28 01:38:10;;;;;;;2.20;1.50;;;21.40;89.80;;;;;;5082731;28;20040;-81
2023/09/28 01:40:43;;;;;;;2.43;1.40;;;21.40;90.10;;;;;;5003071;28;20153;-82
2023/09/28 01:43:09;;;;;;;2.15;1.30;;;21.30;90.10;;;;;;5059926;28;20072;-82
2023/09/28 01:45:35;;;;;;;1.10;1.00;;;21.30;90.00;;;;;;5070171;28;20042;-82
2023/09/28 01:48:05;;;;;;;1.70;1.30;;;21.30;90.00;;;;;;5053148;28;20022;-82
2023/09/28 01:50:31;;;;;;;2.20;1.20;;;21.30;90.10;;;;;;5037401;28;20121;-82
2023/09/28 01:52:57;;;;;;;2.13;1.30;;;21.20;90.10;;;;;;4996760;28;20053;-82
2023/09/28 01:55:23;;;;;;;1.70;1.40;;;21.20;90.10;;;;;;5070797;28;20069;-82
2023/09/28 01:57:49;;;;;;;1.98;1.30;;;;;;;;;;5003095;28;20033;-82
2023/09/28 02:00:18;;;;;;;2.13;1.40;;;21.10;89.80;;;;;;5002655;28;20318;-82
2023/09/28 02:02:44;;;;;;;1.85;1.35;;;21.10;90.20;;;;;;5001551;28;20050;-81
2023/09/28 02:05:11;;;;;;;2.08;1.40;;;21.10;90.60;;;;;;5003302;28;20213;-82
2023/09/28 02:07:37;;;;;;;3.17;1.42;;;21.10;90.30;;;;;;4995554;28;20034;-81
2023/09/28 02:10:07;;;;;;;2.00;1.30;;;21.10;90.30;;;;;;5064270;28;21448;-81
2023/09/28 02:12:33;;;;;;;3.35;1.52;;;21.00;90.30;;;;;;5068396;28;20029;-82
2023/09/28 02:15:04;;;;;;;3.42;1.60;;;21.00;90.40;;;;;;5003507;28;20380;-81
2023/09/28 02:17:30;;;;;;;2.83;1.55;;;21.00;90.50;;;;;;5071619;28;20090;-81
2023/09/28 02:19:56;;;;;;;4.07;1.75;;;20.90;90.40;;;;;;5068521;28;20492;-82
2023/09/28 02:22:22;;;;;;;1.73;1.27;;;20.90;90.50;;;;;;5060064;28;20976;-81
2023/09/28 02:24:50;;;;;;;2.03;1.40;;;20.90;90.50;;;;;;5072030;28;20021;-81
2023/09/28 02:27:17;;;;;;;2.55;1.67;;;20.90;90.50;;;;;;5004551;28;20431;-80
2023/09/28 02:29:44;;;;;;;1.95;1.35;;;20.90;90.60;;;;;;5004087;28;20037;-81
2023/09/28 02:32:13;;;;;;;2.92;1.38;;;20.90;90.70;;;;;;5003410;28;20067;-82
2023/09/28 02:34:39;;;;;;;2.20;1.37;;;18.20;91.20;;;;;;5068281;28;20034;-81
2023/09/28 02:37:06;;;;;;;2.45;1.60;;;20.90;90.70;;;;;;5067851;28;20042;-82
2023/09/28 02:39:34;;;;;;;2.35;1.42;;;20.80;90.70;;;;;;4997142;28;20026;-81
2023/09/28 02:42:03;;;;;;;2.15;1.50;;;20.80;90.80;;;;;;5052004;28;20472;-80
2023/09/28 02:44:29;;;;;;;2.85;1.63;;;20.80;90.80;;;;;;5070520;28;20109;-79
2023/09/28 02:46:55;;;;;;;2.40;1.60;;;20.70;90.70;;;;;;5070500;28;20128;-80
2023/09/28 02:49:21;;;;;;;1.80;1.42;;;20.60;91.60;;;;;;5044959;28;20432;-82
2023/09/28 02:51:47;;;;;;;2.13;1.60;;;20.70;90.80;;;;;;5071913;28;20030;-80
2023/09/28 02:54:13;;;;;;;2.28;1.50;;;20.70;90.90;;;;;;4994913;28;20046;-80
2023/09/28 02:56:39;;;;;;;2.22;1.48;;;20.70;90.90;;;;;;5065160;28;20073;-80
2023/09/28 02:59:06;;;;;;;2.57;1.47;;;20.60;90.90;;;;;;5074503;28;20028;-80
2023/09/28 03:01:32;;;;;;;3.20;1.52;;;20.60;90.90;;;;;;5073123;28;20045;-80
2023/09/28 03:04:00;;;;;;;1.90;1.50;;;20.60;91.00;;;;;;5083623;28;20514;-80
2023/09/28 03:06:25;;;;;;;3.10;1.50;;;20.60;91.10;;;;;;5088177;28;20061;-79
2023/09/28 03:08:51;;;;;;;3.13;1.80;;;20.60;91.10;;;;;;5083161;28;20040;-80
2023/09/28 03:11:17;;;;;;;1.55;1.30;;;20.50;91.20;;;;;;5083386;28;20039;-79
2023/09/28 03:13:42;;;;;;;2.30;1.60;;;20.60;91.30;;;;;;5084559;28;20040;-79
2023/09/28 03:16:09;;;;;;;2.13;1.60;;;20.50;91.40;;;;;;5087944;28;20253;-80
2023/09/28 03:18:35;;;;;;;2.77;1.40;;;20.60;91.50;;;;;;5085650;28;20110;-80
2023/09/28 03:21:00;;;;;;;1.85;1.30;;;20.60;91.50;;;;;;5086276;28;20120;-80
2023/09/28 03:23:26;;;;;;;2.97;1.70;;;20.60;91.40;;;;;;5089147;28;20031;-81
2023/09/28 03:25:56;;;;;;;2.25;1.40;;;20.60;91.50;;;;;;5078854;28;20424;-81
2023/09/28 03:28:22;;;;;;;2.38;1.52;;;20.60;91.60;;;;;;5089492;28;20017;-80
2023/09/28 03:30:48;;;;;;;2.28;1.40;;;20.70;92.10;;;;;;5086288;28;20035;-80
2023/09/28 03:33:14;;;;;;;2.60;1.40;;;20.60;91.50;;;;;;5087884;28;20025;-80
2023/09/28 03:35:39;;;;;;;2.20;1.50;;;20.60;91.40;;;;;;5088831;28;20036;-80
2023/09/28 03:38:05;;;;;;;3.40;1.43;;;20.60;91.40;;;;;;5085741;28;20028;-79
2023/09/28 03:40:34;;;;;;;2.70;1.60;;;20.50;91.40;;;;;;5076749;28;20028;-80
2023/09/28 03:43:01;;;;;;;2.15;1.50;;;20.50;91.30;;;;;;5085824;28;20032;-80
2023/09/28 03:45:27;;;;;;;2.25;1.50;;;20.50;91.40;;;;;;5089155;28;20039;-80
2023/09/28 03:47:53;;;;;;;2.30;1.40;;;20.40;91.30;;;;;;5089309;28;20016;-80
2023/09/28 03:50:20;;;;;;;2.40;1.50;;;20.40;91.30;;;;;;5088980;28;20024;-80
2023/09/28 03:52:46;;;;;;;2.33;1.55;;;20.30;91.40;;;;;;5086059;28;20504;-82
2023/09/28 03:55:15;;;;;;;2.75;1.70;;;20.30;91.40;;;;;;5079812;28;20047;-81
2023/09/28 03:57:44;;;;;;;3.37;1.70;;;20.20;91.40;;;;;;5087255;28;20043;-82
2023/09/28 04:00:12;;;;;;;1.80;1.27;;;20.20;91.50;;;;;;5087102;28;20465;-81
2023/09/28 04:02:44;;;;;;;2.33;1.58;;;20.20;91.50;;;;;;5087056;28;20411;-82
2023/09/28 04:05:10;;;;;;;3.05;1.70;;;20.10;91.70;;;;;;5088018;28;20021;-82
2023/09/28 04:07:36;;;;;;;2.35;1.40;;;20.10;91.60;;;;;;5067952;28;20554;-82
2023/09/28 04:10:03;;;;;;;3.80;1.50;;;20.10;91.70;;;;;;5087928;28;20028;-81
2023/09/28 04:12:29;;;;;;;1.90;1.40;;;20.10;91.70;;;;;;5076608;28;20078;-81
2023/09/28 04:14:55;;;;;;;2.53;1.38;;;20.00;91.70;;;;;;5087952;28;20032;-82
2023/09/28 04:17:20;;;;;;;3.22;1.52;;;20.00;91.80;;;;;;5087050;28;20084;-81
2023/09/28 04:19:46;;;;;;;1.90;1.23;;;20.00;91.80;;;;;;5086691;28;20055;-82
2023/09/28 04:22:13;;;;;;;2.30;1.58;;;20.00;91.90;;;;;;5065430;28;20111;-83
2023/09/28 04:24:39;;;;;;;2.77;1.70;;;20.00;91.90;;;;;;5087949;28;20375;-81
2023/09/28 04:27:07;;;;;;;2.92;1.50;;;19.90;91.80;;;;;;5078350;28;20731;-82
2023/09/28 04:29:36;;;;;;;3.78;1.50;;;19.90;92.00;;;;;;5069975;28;20414;-82
2023/09/28 04:32:02;;;;;;;2.50;1.50;;;19.90;91.90;;;;;;5082940;28;20039;-81
2023/09/28 04:34:29;;;;;;;2.60;1.58;;;19.80;91.90;;;;;;5085898;28;20032;-82
2023/09/28 04:36:57;;;;;;;2.27;1.60;;;19.80;91.90;;;;;;5085004;28;20028;-82
2023/09/28 04:39:24;;;;;;;3.20;1.50;;;19.70;91.90;;;;;;5084342;28;20020;-82
2023/09/28 04:41:57;;;;;;;2.50;1.50;;;19.70;91.90;;;;;;5081297;28;20032;-82
2023/09/28 04:44:23;;;;;;;2.15;1.40;;;19.70;92.00;;;;;;5078931;28;20379;-82
2023/09/28 04:46:50;;;;;;;3.35;1.77;;;20.70;92.90;;;;;;5078935;28;20027;-81
2023/09/28 04:49:17;;;;;;;2.13;1.40;;;19.60;91.90;;;;;;5086939;28;20084;-81
2023/09/28 04:51:43;;;;;;;2.40;1.52;;;19.60;91.90;;;;;;5085787;28;20028;-82
2023/09/28 04:54:14;;;;;;;2.50;1.40;;;19.50;91.90;;;;;;5084871;28;20089;-84
2023/09/28 04:56:41;;;;;;;2.33;1.40;;;19.50;92.10;;;;;;5086651;28;20043;-82
2023/09/28 04:59:08;;;;;;;2.27;1.27;;;19.40;92.00;;;;;;5077170;28;20016;-82
2023/09/28 05:01:34;;;;;;;3.15;1.40;;;19.40;92.00;;;;;;5079926;28;20028;-80
2023/09/28 05:04:00;;;;;;;3.13;1.20;;;19.40;92.00;;;;;;5082764;28;20392;-80
2023/09/28 05:06:27;;;;;;;3.92;1.40;;;19.30;92.00;;;;;;5068136;28;20024;-79
2023/09/28 05:08:53;;;;;;;3.63;1.67;;;19.30;92.00;;;;;;5065881;28;20283;-80
2023/09/28 05:11:19;;;;;;;2.80;1.20;;;19.30;92.00;;;;;;5085493;28;20031;-80
2023/09/28 05:13:44;;;;;;;2.17;1.30;;;19.20;92.00;;;;;;5076272;28;20032;-80
2023/09/28 05:16:10;;;;;;;2.50;1.30;;;19.20;91.90;;;;;;5087854;28;20070;-80
2023/09/28 05:18:37;;;;;;;2.90;1.30;;;19.10;91.90;;;;;;5075037;28;20498;-80
2023/09/28 05:21:03;;;;;;;1.98;1.10;;;19.10;91.90;;;;;;5079264;28;20023;-80
2023/09/28 05:23:29;;;;;;;1.70;1.17;;;19.00;91.90;;;;;;5081470;28;20032;-80
2023/09/28 05:25:55;;;;;;;2.17;1.40;;;19.00;91.90;;;;;;5083126;28;20217;-80
2023/09/28 05:28:21;;;;;;;2.30;1.30;;;18.90;91.80;;;;;;5084358;28;20035;-80
2023/09/28 05:30:47;;;;;;;2.37;1.27;;;18.90;91.90;;;;;;5072536;28;20466;-80
2023/09/28 05:33:13;;;;;;;3.92;1.20;;;18.80;91.90;;;;;;5086703;28;20378;-80
2023/09/28 05:35:40;;;;;;;3.22;1.23;;;18.80;92.00;;;;;;5081855;28;20020;-80
2023/09/28 05:38:06;;;;;;;2.30;1.30;;;18.70;92.00;;;;;;5068148;28;20035;-80
2023/09/28 05:40:32;;;;;;;2.60;1.40;;;18.70;92.10;;;;;;5085119;28;20082;-79
2023/09/28 05:42:58;;;;;;;3.47;1.30;;;18.70;92.10;;;;;;5079859;28;20036;-79
2023/09/28 05:45:23;;;;;;;1.98;1.05;;;18.70;92.10;;;;;;5077721;28;20035;-80
2023/09/28 05:47:49;;;;;;;2.37;1.17;;;18.60;92.10;;;;;;5079527;28;20027;-79
2023/09/28 05:50:15;;;;;;;3.10;1.30;;;18.50;92.10;;;;;;5081035;28;20043;-80
2023/09/28 05:52:41;;;;;;;1.87;1.17;;;18.50;92.10;;;;;;5083084;28;20055;-80
2023/09/28 05:55:07;;;;;;;2.35;1.20;;;18.50;92.10;;;;;;5056333;28;20513;-81
2023/09/28 05:57:33;;;;;;;2.58;1.27;;;18.40;92.10;;;;;;5069953;28;20120;-80
2023/09/28 05:59:59;;;;;;;2.43;1.30;;;18.30;92.10;;;;;;5059369;28;20266;-80
2023/09/28 06:02:24;;;;;;;2.00;1.10;;;18.30;92.20;;;;;;5036415;28;20038;-80
2023/09/28 06:04:51;;;;;;;2.50;1.10;;;18.20;92.20;;;;;;5048930;28;20612;-79
2023/09/28 06:07:17;;;;;;;2.58;1.20;;;18.20;92.30;;;;;;5001076;28;20030;-80
2023/09/28 06:09:42;;;;;;;5.00;1.30;;;18.20;92.40;;;;;;5003644;28;20030;-80
2023/09/28 06:12:09;;;;;;;2.87;1.17;;;18.20;92.50;;;;;;5000235;28;20277;-82
2023/09/28 06:14:35;;;;;;;1.75;1.00;;;18.20;92.50;;;;;;5001607;28;20034;-81
2023/09/28 06:17:01;;;;;;;3.65;1.20;;;18.20;92.60;;;;;;5052214;28;20310;-82
2023/09/28 06:19:27;;;;;;;1.70;1.10;;;18.10;92.70;;;;;;5000161;28;20599;-81
2023/09/28 06:21:54;;;;;;;1.73;0.90;;;18.20;92.80;;;;;;5060676;28;20179;-81
2023/09/28 06:24:20;;;;;;;2.75;1.00;;;18.20;92.90;;;;;;5064704;28;20153;-82
2023/09/28 06:26:46;;;;;;;3.47;1.15;;;18.30;92.90;;;;;;5066524;28;20033;-81
2023/09/28 06:29:12;;;;;;;2.43;1.07;;;18.20;92.90;;;;;;5049277;28;20503;-83
2023/09/28 06:31:38;;;;;;;2.77;1.20;;;18.30;92.90;;;;;;5064866;28;20280;-81
2023/09/28 06:34:06;;;;;;;3.55;1.20;;;18.30;92.90;;;;;;5072676;28;20030;-82
2023/09/28 06:36:32;;;;;;;2.90;0.98;;;18.30;93.00;;;;;;5070053;28;20045;-81
2023/09/28 06:38:59;;;;;;;3.63;0.98;;;18.40;93.00;;;;;;5003486;28;20018;-81
2023/09/28 06:41:25;;;;;;;3.57;1.10;;;18.40;93.00;;;;;;5072077;28;20121;-82
2023/09/28 06:43:51;;;;;;;3.78;1.02;;;18.40;93.00;;;;;;5069754;28;20083;-82
2023/09/28 06:46:17;;;;;;;3.08;0.95;;;18.40;93.00;;;;;;5065531;28;20068;-82
2023/09/28 06:48:45;;;;;;;4.10;1.08;;;18.50;93.00;;;;;;4997860;28;20515;-82
2023/09/28 06:51:11;;;;;;;2.85;1.08;;;18.50;93.10;;;;;;5068422;28;20031;-82
2023/09/28 06:53:38;;;;;;;4.23;1.23;;;;;;;;;;5073298;28;20030;-84
2023/09/28 06:56:05;;;;;;;2.75;1.23;;;18.60;92.80;;;;;;5005123;28;20029;-81
2023/09/28 06:58:31;;;;;;;3.35;1.10;;;18.60;93.10;;;;;;5004881;28;20038;-82
2023/09/28 07:00:59;;;;;;;2.28;0.93;;;18.70;93.10;;;;;;5065794;28;20480;-81
2023/09/28 07:03:28;;;;;;;4.17;1.20;;;18.70;93.20;;;;;;5046648;28;20046;-82
2023/09/28 07:05:53;;;;;;;3.95;1.00;;;18.70;93.20;;;;;;5073364;28;20022;-82
2023/09/28 07:08:19;;;;;;;3.33;1.10;;;18.80;93.20;;;;;;5057976;28;20527;-82
2023/09/28 07:10:45;;;;;;;2.60;0.90;;;18.80;93.30;;;;;;5075622;28;20083;-83
2023/09/28 07:13:11;;;;;;;4.82;1.25;;;18.90;93.30;;;;;;5070408;28;22052;-83
2023/09/28 07:15:37;;;;;;;3.88;1.13;;;18.90;93.40;;;;;;5065623;28;20042;-82
2023/09/28 07:18:03;;;;;;;4.43;1.00;;;19.00;93.50;;;;;;5038236;28;20033;-81
2023/09/28 07:20:30;;;;;;;4.70;1.00;;;19.10;93.60;;;;;;5064836;28;20416;-82
2023/09/28 07:22:56;;;;;;;4.75;0.95;;;19.10;93.80;;;;;;4996572;28;20037;-80
2023/09/28 07:25:23;;;;;;;4.78;1.02;;;19.30;94.20;;;;;;5003044;28;20099;-81
2023/09/28 07:27:49;;;;;;;4.75;1.05;;;19.50;94.80;;;;;;5004330;28;20029;-80
2023/09/28 07:30:19;;;;;;;3.67;1.10;;;19.80;95.30;;;;;;5061376;28;20668;-80
2023/09/28 07:32:48;;;;;;;4.03;1.00;;;20.10;95.60;;;;;;4985678;28;20018;-81
2023/09/28 07:35:15;;;;;;;3.47;1.02;;;20.50;95.60;;;;;;4991259;28;20029;-80
2023/09/28 07:37:42;;;;;;;4.05;1.05;;;20.80;95.20;;;;;;5065199;28;20041;-81
2023/09/28 07:40:12;;;;;;;3.50;0.93;;;21.00;94.80;;;;;;5068225;28;20045;-81
2023/09/28 07:42:43;;;;;;;4.57;1.30;;;21.20;94.60;;;;;;5055678;28;20022;-81
2023/09/28 07:45:11;;;;;;;3.08;1.10;;;21.50;94.50;;;;;;5059627;28;20030;-80
2023/09/28 07:47:38;;;;;;;5.80;1.17;;;21.70;94.80;;;;;;5070328;28;20038;-81
2023/09/28 07:50:10;;;;;;;4.45;1.05;;;21.90;94.80;;;;;;4990683;28;20336;-82
2023/09/28 07:52:36;;;;;;;5.68;1.20;;;22.10;95.00;;;;;;5000964;28;20042;-82
2023/09/28 07:55:02;;;;;;;4.27;1.20;;;22.40;95.20;;;;;;5059577;28;20026;-82
2023/09/28 07:57:28;;;;;;;3.92;1.10;;;22.70;95.30;;;;;;5004371;28;20441;-80
2023/09/28 07:59:54;;;;;;;6.82;1.52;;;23.00;95.20;;;;;;5068593;28;20105;-81
2023/09/28 08:02:22;;;;;;;5.90;1.40;;;23.30;95.00;;;;;;5003049;28;20022;-80
2023/09/28 08:04:48;;;;;;;5.03;1.40;;;23.60;94.80;;;;;;5009981;28;20078;-82
2023/09/28 08:07:15;;;;;;;5.63;1.38;;;23.80;94.70;;;;;;5090203;28;20048;-82
2023/09/28 08:09:42;;;;;;;4.50;1.50;;;24.00;94.60;;;;;;5026378;28;20022;-83
2023/09/28 08:12:08;;;;;;;5.35;1.27;;;24.30;94.20;;;;;;5024989;28;20014;-81
2023/09/28 08:14:34;;;;;;;6.15;1.30;;;24.40;93.50;;;;;;5029343;28;20030;-84
2023/09/28 08:17:00;;;;;;;6.07;1.47;;;24.50;92.90;;;;;;5079680;28;20508;-81
2023/09/28 08:19:25;;;;;;;5.40;1.05;;;24.50;92.50;;;;;;5068829;28;20377;-81
2023/09/28 08:21:51;;;;;;;5.20;1.13;;;24.60;92.30;;;;;;4990237;28;20373;-84
2023/09/28 08:24:17;;;;;;;6.95;1.20;;;24.60;92.00;;;;;;5048707;28;20420;-81
2023/09/28 08:26:43;;;;;;;5.27;1.67;;;24.50;91.80;;;;;;5050760;28;20030;-84
2023/09/28 08:29:09;;;;;;;4.10;1.10;;;24.50;91.80;;;;;;5068387;28;20026;-82
2023/09/28 08:31:34;;;;;;;6.68;1.35;;;24.50;91.90;;;;;;5059597;28;20433;-82
2023/09/28 08:34:02;;;;;;;6.30;1.10;;;24.50;92.10;;;;;;5065210;28;20033;-83
2023/09/28 08:36:29;;;;;;;6.05;1.10;;;24.70;92.30;;;;;;5086955;27;20021;-83
2023/09/28 08:38:58;;;;;;;7.00;1.20;;;24.80;92.30;;;;;;5019515;28;20180;-84
2023/09/28 08:41:43;;;;;;;6.10;1.35;;;24.80;91.30;;;;;;5026086;28;20014;-84
2023/09/28 08:44:10;;;;;;;5.50;1.40;;;25.10;91.00;;;;;;5093352;28;20018;-86
2023/09/28 08:46:39;;;;;;;4.15;1.13;;;25.20;91.80;;;;;;5090561;28;20085;-84
2023/09/28 08:49:10;;;;;;;4.30;1.15;;;25.40;91.50;;;;;;5021971;28;20030;-84
2023/09/28 08:51:41;;;;;;;6.53;1.60;;;25.40;90.00;;;;;;5076768;28;20090;-86
2023/09/28 08:54:06;;;;;;;8.23;1.98;;;25.40;90.20;;;;;;5067478;28;20034;-84
2023/09/28 08:56:39;;;;;;;5.90;1.40;;;25.30;89.80;;;;;;5090968;28;20021;-84
2023/09/28 08:59:05;;;;;;;5.43;1.20;;;25.30;87.40;;;;;;5086506;28;20030;-85
2023/09/28 09:01:35;;;;;;;4.57;1.20;;;25.10;88.70;;;;;;5029812;28;20049;-83
2023/09/28 09:04:00;;;;;;;6.28;1.25;;;25.00;87.80;;;;;;5093987;28;20038;-82
2023/09/28 09:06:28;;;;;;;4.60;1.10;;;25.00;89.50;;;;;;5094303;28;20026;-84
2023/09/28 09:09:00;;;;;;;3.75;1.00;;;25.00;89.60;;;;;;5074200;28;20068;-82
2023/09/28 09:11:28;;;;;;;4.28;1.17;;;25.00;90.30;;;;;;5076948;28;20030;-81
2023/09/28 09:13:54;;;;;;;4.32;1.15;;;25.30;90.90;;;;;;5091752;28;20153;-83
2023/09/28 09:16:25;;;;;;;5.90;1.33;;;25.50;91.30;;;;;;5081128;28;20034;-83
2023/09/28 09:18:54;;;;;;;4.97;1.20;;;25.80;90.60;;;;;;5027980;28;20018;-83
2023/09/28 09:21:21;;;;;;;4.35;1.27;;;26.20;90.40;;;;;;5027430;28;20024;-83
2023/09/28 09:24:13;;;;;;;5.45;1.50;;;26.30;90.20;;;;;;5077262;28;20033;-84
2023/09/28 09:26:44;;;;;;;7.50;1.23;;;26.40;85.60;;;;;;5021814;28;20043;-85
2023/09/28 09:29:12;;;;;;;5.80;1.40;;;26.40;86.90;;;;;;5025807;28;20040;-83
2023/09/28 09:31:43;;;;;;;4.80;1.27;;;26.50;88.00;;;;;;5092862;28;20065;-84
2023/09/28 09:34:12;;;;;;;4.88;1.20;;;26.40;86.10;;;;;;5022266;28;20302;-84
2023/09/28 09:36:39;;;;;;;6.05;1.20;;;26.40;85.60;;;;;;5089462;28;20057;-85
2023/09/28 09:39:06;;;;;;;5.00;1.27;;;26.50;87.00;;;;;;5080619;28;20042;-86
2023/09/28 09:41:44;;;;;;;7.55;1.20;;;26.50;87.30;;;;;;5075323;28;20030;-82
2023/09/28 09:44:11;;;;;;;5.50;1.20;;;26.60;84.90;;;;;;5076688;28;20018;-82
2023/09/28 09:46:37;;;;;;;6.50;1.40;;;26.60;86.80;;;;;;5094178;27;20029;-83
2023/09/28 09:49:04;;;;;;;6.33;1.40;;;26.70;87.20;;;;;;5035144;28;20018;-83
2023/09/28 09:51:32;;;;;;;7.28;1.45;;;26.80;87.10;;;;;;5091618;28;20033;-83
2023/09/28 09:53:59;;;;;;;5.15;1.40;;;26.90;86.40;;;;;;5014767;28;20041;-83
2023/09/28 09:56:26;;;;;;;4.40;1.10;;;27.00;86.70;;;;;;5088333;27;20026;-82
2023/09/28 09:58:55;;;;;;;4.47;1.20;;;27.10;86.50;;;;;;5092792;28;20045;-83
2023/09/28 10:01:22;;;;;;;5.33;1.30;;;27.20;84.80;;;;;;5065925;28;20030;-82
2023/09/28 10:03:52;;;;;;;5.63;1.50;;;27.30;84.60;;;;;;5018549;28;20064;-82
2023/09/28 10:06:20;;;;;;;6.15;1.98;;;27.30;84.80;;;;;;5081856;28;20222;-85
2023/09/28 10:08:49;;;;;;;5.53;1.45;;;27.40;85.60;;;;;;5100625;28;20064;-85
2023/09/28 10:11:16;;;;;;;4.03;1.13;;;27.10;84.40;;;;;;5091312;28;20025;-82
2023/09/28 10:13:43;;;;;;;2.83;1.00;;;27.80;86.30;;;;;;5094651;28;20010;-81
2023/09/28 10:16:12;;;;;;;4.22;1.10;;;28.10;86.20;;;;;;5081266;28;20013;-83
2023/09/28 10:18:43;;;;;;;5.88;1.70;;;28.30;85.30;;;;;;5096759;28;20044;-81
2023/09/28 10:21:10;;;;;;;4.47;1.30;;;28.50;85.00;;;;;;5030617;28;20032;-83
2023/09/28 10:23:36;;;;;;;4.15;1.40;;;28.80;85.10;;;;;;5027622;28;20017;-83
2023/09/28 10:26:12;;;;;;;4.47;1.30;;;29.00;84.00;;;;;;5019868;28;20049;-84
2023/09/28 10:29:05;;;;;;;4.25;1.23;;;29.10;80.10;;;;;;5034201;28;20081;-82
2023/09/28 10:31:40;;;;;;;5.80;1.60;;;29.20;79.20;;;;;;5069918;28;20041;-83
2023/09/28 10:34:08;;;;;;;5.70;1.40;;;29.30;78.60;;;;;;5074040;28;20014;-83
2023/09/28 10:36:38;;;;;;;4.82;1.30;;;29.30;80.20;;;;;;5096084;28;20098;-83
2023/09/28 10:39:15;;;;;;;4.90;1.23;;;29.20;77.80;;;;;;5073569;28;20022;-82
2023/09/28 10:41:51;;;;;;;4.38;1.15;;;29.00;76.20;;;;;;5020735;28;20077;-83
2023/09/28 10:44:19;;;;;;;4.05;1.58;;;28.90;76.50;;;;;;5023291;28;20164;-84
2023/09/28 10:46:47;;;;;;;3.20;1.20;;;29.00;80.20;;;;;;5109578;28;20034;-84
2023/09/28 10:49:15;;;;;;;4.45;1.77;;;29.10;79.90;;;;;;5028594;28;20018;-84
2023/09/28 10:51:42;;;;;;;3.13;1.20;;;29.60;77.80;;;;;;5099837;28;20033;-83
2023/09/28 10:54:08;;;;;;;4.15;1.30;;;29.20;78.60;;;;;;5093269;28;20030;-83
2023/09/28 10:56:34;;;;;;;3.58;1.17;;;29.30;77.60;;;;;;5024262;28;20072;-82
2023/09/28 10:59:02;;;;;;;3.47;1.30;;;29.20;76.60;;;;;;5098074;28;20025;-84
2023/09/28 11:01:28;;;;;;;5.03;1.30;;;29.20;77.10;;;;;;5072714;28;20018;-84
2023/09/28 11:03:54;;;;;;;4.97;1.40;;;29.20;76.40;;;;;;5088167;28;20070;-83
2023/09/28 11:06:21;;;;;;;4.13;1.23;;;29.10;76.10;;;;;;5076652;28;20045;-84
2023/09/28 11:08:52;;;;;;;4.45;1.10;;;29.00;75.00;;;;;;5028416;28;20033;-83
2023/09/28 11:11:21;;;;;;;4.70;1.30;;;28.90;74.60;;;;;;5090381;28;20038;-82
2023/09/28 11:13:47;;;;;;;6.17;1.50;;;28.90;75.40;;;;;;5024247;28;20022;-83
2023/09/28 11:16:16;;;;;;;3.55;1.13;;;28.90;75.50;;;;;;5061978;28;20018;-82
2023/09/28 11:18:42;;;;;;;4.60;1.30;;;29.00;75.90;;;;;;5066863;28;20054;-82
2023/09/28 11:21:08;;;;;;;3.80;1.08;;;29.10;76.20;;;;;;5068953;28;20056;-80
2023/09/28 11:23:34;;;;;;;5.20;1.50;;;29.20;76.90;;;;;;5063982;28;20041;-84
2023/09/28 11:26:00;;;;;;;3.80;1.20;;;29.30;75.10;;;;;;5052008;28;20026;-83
2023/09/28 11:28:27;;;;;;;5.00;1.40;;;29.40;74.90;;;;;;5063538;28;20492;-81
2023/09/28 11:31:10;;;;;;;2.97;1.10;;;29.50;75.00;;;;;;5066463;28;20416;-83
2023/09/28 11:33:46;;;;;;;3.88;1.25;;;29.70;74.30;;;;;;5004542;28;20041;-84
2023/09/28 11:36:22;;;;;;;6.03;1.75;;;29.60;76.30;;;;;;5052206;28;20076;-83
2023/09/28 11:38:49;;;;;;;4.07;1.40;;;30.30;75.50;;;;;;5067293;28;20075;-83
2023/09/28 11:41:16;;;;;;;4.18;1.80;;;30.60;76.80;;;;;;5051585;28;20026;-82
2023/09/28 11:43:46;;;;;;;4.05;1.52;;;30.90;76.40;;;;;;5043346;28;20034;-82
2023/09/28 11:46:17;;;;;;;4.63;1.50;;;31.20;73.60;;;;;;5065970;28;20142;-83
2023/09/28 11:48:43;;;;;;;4.72;1.40;;;31.40;74.00;;;;;;5003283;28;20392;-83
2023/09/28 11:51:09;;;;;;;3.77;1.57;;;31.50;72.80;;;;;;5067221;28;20033;-84
2023/09/28 11:53:40;;;;;;;4.45;1.63;;;31.60;72.60;;;;;;5048131;28;20042;-81
2023/09/28 11:56:06;;;;;;;5.20;1.67;;;31.70;70.00;;;;;;5051567;28;20063;-82
2023/09/28 11:58:34;;;;;;;4.45;1.48;;;31.70;70.20;;;;;;5060015;28;20037;-83
2023/09/28 12:01:00;;;;;;;4.60;1.50;;;31.70;69.70;;;;;;5061991;28;20259;-82
2023/09/28 12:03:26;;;;;;;4.10;1.60;;;31.60;69.30;;;;;;5095255;28;20056;-83
2023/09/28 12:05:52;;;;;;;3.22;1.60;;;31.50;69.10;;;;;;5108320;28;20046;-83
2023/09/28 12:08:18;;;;;;;3.65;1.70;;;31.50;69.40;;;;;;5107759;27;20036;-83
2023/09/28 12:10:43;;;;;;;4.43;1.57;;;31.60;69.00;;;;;;5103322;28;20038;-84
2023/09/28 12:13:10;;;;;;;3.42;1.45;;;31.60;68.60;;;;;;5111033;28;20036;-82
2023/09/28 12:15:37;;;;;;;4.75;1.35;;;31.60;68.00;;;;;;5079953;28;20092;-84
2023/09/28 12:18:04;;;;;;;4.07;1.53;;;31.60;68.00;;;;;;5102682;28;20048;-84
2023/09/28 12:20:29;;;;;;;3.97;1.33;;;31.60;67.40;;;;;;5110595;28;20024;-84
2023/09/28 12:22:55;;;;;;;4.63;1.63;;;31.60;66.60;;;;;;5088514;28;20171;-83
2023/09/28 12:25:23;;;;;;;3.73;1.50;;;31.50;66.50;;;;;;5107089;28;20032;-82
2023/09/28 12:27:50;;;;;;;4.57;1.67;;;31.50;66.60;;;;;;5105569;28;20032;-81
2023/09/28 12:30:21;;;;;;;3.78;1.60;;;31.50;65.20;;;;;;5097809;28;20020;-84
2023/09/28 12:32:49;;;;;;;3.83;1.33;;;31.50;65.60;;;;;;5093732;28;20016;-82
2023/09/28 12:35:15;;;;;;;4.97;1.37;;;31.40;65.90;;;;;;5095977;28;20035;-83
2023/09/28 12:37:41;;;;;;;6.03;1.30;;;31.50;66.80;;;;;;5083835;28;20438;-82
2023/09/28 12:40:11;;;;;;;4.40;1.67;;;31.50;66.80;;;;;;5081058;28;20077;-83
2023/09/28 12:42:39;;;;;;;3.33;1.40;;;31.60;66.10;;;;;;5063150;28;20028;-82
2023/09/28 12:45:05;;;;;;;3.10;1.30;;;31.60;65.80;;;;;;5084435;28;20023;-82
2023/09/28 12:47:31;;;;;;;2.93;1.37;;;31.70;66.30;;;;;;5063323;28;20044;-83
2023/09/28 12:49:59;;;;;;;3.50;1.42;;;31.60;64.40;;;;;;5078764;28;20028;-84